sensor_id;sensor_type;location;lat;lon;timestamp;P1;durP1;ratioP1;P2;durP2;ratioP2
12838;SDS011;6486;51.034;5.262;2023-04-19T00:00:55;4.13;;;3.10;;
12838;SDS011;6486;51.034;5.262;2023-04-19T00:03:21;45.70;;;2.93;;
12838;SDS011;6486;51.034;5.262;2023-04-19T00:05:49;3.33;;;2.37;;
12838;SDS011;6486;51.034;5.262;2023-04-19T00:08:17;7.13;;;3.63;;
12838;SDS011;6486;51.034;5.262;2023-04-19T00:10:43;3.03;;;2.33;;
12838;SDS011;6486;51.034;5.262;2023-04-19T00:13:08;5.37;;;3.07;;
12838;SDS011;6486;51.034;5.262;2023-04-19T00:15:34;4.77;;;3.13;;
12838;SDS011;6486;51.034;5.262;2023-04-19T00:18:01;5.90;;;2.77;;
12838;SDS011;6486;51.034;5.262;2023-04-19T00:20:27;4.67;;;2.47;;
12838;SDS011;6486;51.034;5.262;2023-04-19T00:22:53;2.60;;;1.93;;
12838;SDS011;6486;51.034;5.262;2023-04-19T00:25:18;3.63;;;2.80;;
12838;SDS011;6486;51.034;5.262;2023-04-19T00:27:44;5.67;;;2.37;;
12838;SDS011;6486;51.034;5.262;2023-04-19T00:30:09;4.63;;;2.97;;
12838;SDS011;6486;51.034;5.262;2023-04-19T00:32:35;7.10;;;2.97;;
12838;SDS011;6486;51.034;5.262;2023-04-19T00:35:01;4.77;;;3.00;;
12838;SDS011;6486;51.034;5.262;2023-04-19T00:37:27;2.53;;;2.27;;
12838;SDS011;6486;51.034;5.262;2023-04-19T00:39:53;2.07;;;1.90;;
12838;SDS011;6486;51.034;5.262;2023-04-19T00:42:19;5.30;;;2.97;;
12838;SDS011;6486;51.034;5.262;2023-04-19T00:44:44;3.43;;;2.53;;
12838;SDS011;6486;51.034;5.262;2023-04-19T00:47:10;7.57;;;2.83;;
12838;SDS011;6486;51.034;5.262;2023-04-19T00:49:37;4.57;;;2.97;;
12838;SDS011;6486;51.034;5.262;2023-04-19T00:52:03;4.07;;;2.57;;
12838;SDS011;6486;51.034;5.262;2023-04-19T00:54:29;4.17;;;2.30;;
12838;SDS011;6486;51.034;5.262;2023-04-19T00:56:55;4.20;;;2.10;;
12838;SDS011;6486;51.034;5.262;2023-04-19T00:59:21;4.60;;;3.67;;
12838;SDS011;6486;51.034;5.262;2023-04-19T01:01:47;2.40;;;1.87;;
12838;SDS011;6486;51.034;5.262;2023-04-19T01:04:12;3.57;;;3.00;;
12838;SDS011;6486;51.034;5.262;2023-04-19T01:06:39;5.70;;;3.00;;
12838;SDS011;6486;51.034;5.262;2023-04-19T01:09:06;4.50;;;2.23;;
12838;SDS011;6486;51.034;5.262;2023-04-19T01:11:31;6.47;;;3.40;;
12838;SDS011;6486;51.034;5.262;2023-04-19T01:13:58;4.03;;;2.50;;
12838;SDS011;6486;51.034;5.262;2023-04-19T01:16:25;3.40;;;2.20;;
12838;SDS011;6486;51.034;5.262;2023-04-19T01:18:51;5.00;;;2.33;;
12838;SDS011;6486;51.034;5.262;2023-04-19T01:21:16;3.13;;;1.90;;
12838;SDS011;6486;51.034;5.262;2023-04-19T01:23:42;4.13;;;3.30;;
12838;SDS011;6486;51.034;5.262;2023-04-19T01:26:08;10.70;;;3.73;;
12838;SDS011;6486;51.034;5.262;2023-04-19T01:28:34;5.67;;;2.83;;
12838;SDS011;6486;51.034;5.262;2023-04-19T01:30:59;2.80;;;2.27;;
12838;SDS011;6486;51.034;5.262;2023-04-19T01:33:25;2.73;;;2.03;;
12838;SDS011;6486;51.034;5.262;2023-04-19T01:35:51;4.60;;;2.07;;
12838;SDS011;6486;51.034;5.262;2023-04-19T01:38:16;11.93;;;2.60;;
12838;SDS011;6486;51.034;5.262;2023-04-19T01:40:42;4.50;;;2.23;;
12838;SDS011;6486;51.034;5.262;2023-04-19T01:43:12;7.50;;;2.70;;
12838;SDS011;6486;51.034;5.262;2023-04-19T01:45:38;3.37;;;2.47;;
12838;SDS011;6486;51.034;5.262;2023-04-19T01:48:04;4.37;;;2.13;;
12838;SDS011;6486;51.034;5.262;2023-04-19T01:50:30;3.50;;;2.40;;
12838;SDS011;6486;51.034;5.262;2023-04-19T01:52:56;3.07;;;2.23;;
12838;SDS011;6486;51.034;5.262;2023-04-19T01:55:22;2.70;;;1.90;;
12838;SDS011;6486;51.034;5.262;2023-04-19T01:57:48;2.37;;;1.67;;
12838;SDS011;6486;51.034;5.262;2023-04-19T02:00:13;4.73;;;2.37;;
12838;SDS011;6486;51.034;5.262;2023-04-19T02:02:41;5.60;;;2.50;;
12838;SDS011;6486;51.034;5.262;2023-04-19T02:05:07;7.10;;;2.73;;
12838;SDS011;6486;51.034;5.262;2023-04-19T02:07:33;5.93;;;2.53;;
12838;SDS011;6486;51.034;5.262;2023-04-19T02:09:59;6.37;;;2.10;;
12838;SDS011;6486;51.034;5.262;2023-04-19T02:12:25;3.63;;;3.07;;
12838;SDS011;6486;51.034;5.262;2023-04-19T02:14:55;3.80;;;2.80;;
12838;SDS011;6486;51.034;5.262;2023-04-19T02:17:21;5.50;;;1.90;;
12838;SDS011;6486;51.034;5.262;2023-04-19T02:19:47;4.97;;;2.43;;
12838;SDS011;6486;51.034;5.262;2023-04-19T02:22:13;3.17;;;2.03;;
12838;SDS011;6486;51.034;5.262;2023-04-19T02:24:39;3.63;;;2.53;;
12838;SDS011;6486;51.034;5.262;2023-04-19T02:27:04;6.30;;;2.60;;
12838;SDS011;6486;51.034;5.262;2023-04-19T02:29:30;4.20;;;2.97;;
12838;SDS011;6486;51.034;5.262;2023-04-19T02:31:56;3.53;;;2.30;;
12838;SDS011;6486;51.034;5.262;2023-04-19T02:34:22;5.37;;;2.47;;
12838;SDS011;6486;51.034;5.262;2023-04-19T02:36:47;4.67;;;2.63;;
12838;SDS011;6486;51.034;5.262;2023-04-19T02:39:13;3.17;;;2.73;;
12838;SDS011;6486;51.034;5.262;2023-04-19T02:41:39;3.67;;;2.53;;
12838;SDS011;6486;51.034;5.262;2023-04-19T02:44:05;6.37;;;3.13;;
12838;SDS011;6486;51.034;5.262;2023-04-19T02:46:30;3.30;;;2.20;;
12838;SDS011;6486;51.034;5.262;2023-04-19T02:48:56;4.57;;;2.20;;
12838;SDS011;6486;51.034;5.262;2023-04-19T02:51:21;4.20;;;2.27;;
12838;SDS011;6486;51.034;5.262;2023-04-19T02:53:47;3.83;;;2.23;;
12838;SDS011;6486;51.034;5.262;2023-04-19T02:56:12;3.03;;;2.53;;
12838;SDS011;6486;51.034;5.262;2023-04-19T02:58:38;3.30;;;2.20;;
12838;SDS011;6486;51.034;5.262;2023-04-19T03:01:04;6.73;;;3.20;;
12838;SDS011;6486;51.034;5.262;2023-04-19T03:03:30;5.23;;;2.63;;
12838;SDS011;6486;51.034;5.262;2023-04-19T03:05:56;2.77;;;2.53;;
12838;SDS011;6486;51.034;5.262;2023-04-19T03:08:21;3.43;;;2.50;;
12838;SDS011;6486;51.034;5.262;2023-04-19T03:10:47;4.10;;;2.30;;
12838;SDS011;6486;51.034;5.262;2023-04-19T03:13:12;5.40;;;3.00;;
12838;SDS011;6486;51.034;5.262;2023-04-19T03:15:38;3.07;;;1.70;;
12838;SDS011;6486;51.034;5.262;2023-04-19T03:18:04;2.80;;;2.57;;
12838;SDS011;6486;51.034;5.262;2023-04-19T03:20:30;4.23;;;2.53;;
12838;SDS011;6486;51.034;5.262;2023-04-19T03:22:55;3.30;;;2.17;;
12838;SDS011;6486;51.034;5.262;2023-04-19T03:25:21;3.97;;;2.90;;
12838;SDS011;6486;51.034;5.262;2023-04-19T03:27:46;1.97;;;1.77;;
12838;SDS011;6486;51.034;5.262;2023-04-19T03:30:13;3.47;;;2.17;;
12838;SDS011;6486;51.034;5.262;2023-04-19T03:32:39;3.70;;;2.43;;
12838;SDS011;6486;51.034;5.262;2023-04-19T03:35:04;3.20;;;2.27;;
12838;SDS011;6486;51.034;5.262;2023-04-19T03:37:30;4.97;;;2.73;;
12838;SDS011;6486;51.034;5.262;2023-04-19T03:39:56;4.97;;;3.23;;
12838;SDS011;6486;51.034;5.262;2023-04-19T03:42:21;2.33;;;2.13;;
12838;SDS011;6486;51.034;5.262;2023-04-19T03:44:47;2.83;;;2.40;;
12838;SDS011;6486;51.034;5.262;2023-04-19T03:47:12;7.87;;;2.70;;
12838;SDS011;6486;51.034;5.262;2023-04-19T03:49:38;3.77;;;2.10;;
12838;SDS011;6486;51.034;5.262;2023-04-19T03:52:04;3.27;;;2.40;;
12838;SDS011;6486;51.034;5.262;2023-04-19T03:54:29;11.00;;;3.57;;
12838;SDS011;6486;51.034;5.262;2023-04-19T03:56:55;4.53;;;2.63;;
12838;SDS011;6486;51.034;5.262;2023-04-19T03:59:21;2.87;;;2.23;;
12838;SDS011;6486;51.034;5.262;2023-04-19T04:01:46;3.87;;;3.00;;
12838;SDS011;6486;51.034;5.262;2023-04-19T04:04:12;7.87;;;4.17;;
12838;SDS011;6486;51.034;5.262;2023-04-19T04:06:38;5.83;;;2.93;;
12838;SDS011;6486;51.034;5.262;2023-04-19T04:09:03;5.77;;;4.20;;
12838;SDS011;6486;51.034;5.262;2023-04-19T04:11:29;3.80;;;2.33;;
12838;SDS011;6486;51.034;5.262;2023-04-19T04:13:55;4.00;;;2.93;;
12838;SDS011;6486;51.034;5.262;2023-04-19T04:16:20;8.20;;;3.53;;
12838;SDS011;6486;51.034;5.262;2023-04-19T04:18:46;6.20;;;3.20;;
12838;SDS011;6486;51.034;5.262;2023-04-19T04:21:12;4.97;;;2.23;;
12838;SDS011;6486;51.034;5.262;2023-04-19T04:23:37;4.80;;;4.10;;
12838;SDS011;6486;51.034;5.262;2023-04-19T04:26:03;5.83;;;3.27;;
12838;SDS011;6486;51.034;5.262;2023-04-19T04:28:30;6.73;;;3.43;;
12838;SDS011;6486;51.034;5.262;2023-04-19T04:30:56;5.20;;;3.00;;
12838;SDS011;6486;51.034;5.262;2023-04-19T04:33:23;3.33;;;2.33;;
12838;SDS011;6486;51.034;5.262;2023-04-19T04:35:50;4.20;;;2.93;;
12838;SDS011;6486;51.034;5.262;2023-04-19T04:38:16;5.17;;;2.50;;
12838;SDS011;6486;51.034;5.262;2023-04-19T04:40:42;2.30;;;2.20;;
12838;SDS011;6486;51.034;5.262;2023-04-19T04:43:07;6.87;;;3.97;;
12838;SDS011;6486;51.034;5.262;2023-04-19T04:45:35;4.40;;;3.37;;
12838;SDS011;6486;51.034;5.262;2023-04-19T04:48:01;3.73;;;3.10;;
12838;SDS011;6486;51.034;5.262;2023-04-19T04:50:27;6.77;;;4.07;;
12838;SDS011;6486;51.034;5.262;2023-04-19T04:52:53;6.10;;;3.97;;
12838;SDS011;6486;51.034;5.262;2023-04-19T04:55:18;4.10;;;3.33;;
12838;SDS011;6486;51.034;5.262;2023-04-19T04:57:44;5.27;;;4.27;;
12838;SDS011;6486;51.034;5.262;2023-04-19T05:00:10;5.50;;;3.17;;
12838;SDS011;6486;51.034;5.262;2023-04-19T05:02:36;8.93;;;2.33;;
12838;SDS011;6486;51.034;5.262;2023-04-19T05:05:02;5.20;;;2.90;;
12838;SDS011;6486;51.034;5.262;2023-04-19T05:07:27;5.30;;;2.83;;
12838;SDS011;6486;51.034;5.262;2023-04-19T05:09:53;6.27;;;3.20;;
12838;SDS011;6486;51.034;5.262;2023-04-19T05:12:19;6.93;;;3.03;;
12838;SDS011;6486;51.034;5.262;2023-04-19T05:14:44;5.17;;;2.93;;
12838;SDS011;6486;51.034;5.262;2023-04-19T05:17:10;2.43;;;2.23;;
12838;SDS011;6486;51.034;5.262;2023-04-19T05:19:35;2.97;;;2.23;;
12838;SDS011;6486;51.034;5.262;2023-04-19T05:22:01;3.97;;;2.50;;
12838;SDS011;6486;51.034;5.262;2023-04-19T05:24:26;3.83;;;3.07;;
12838;SDS011;6486;51.034;5.262;2023-04-19T05:26:52;2.47;;;2.27;;
12838;SDS011;6486;51.034;5.262;2023-04-19T05:29:18;4.67;;;2.93;;
12838;SDS011;6486;51.034;5.262;2023-04-19T05:31:43;4.87;;;2.30;;
12838;SDS011;6486;51.034;5.262;2023-04-19T05:34:09;6.53;;;2.53;;
12838;SDS011;6486;51.034;5.262;2023-04-19T05:36:35;4.87;;;2.53;;
12838;SDS011;6486;51.034;5.262;2023-04-19T05:39:00;6.57;;;2.97;;
12838;SDS011;6486;51.034;5.262;2023-04-19T05:41:26;6.90;;;3.03;;
12838;SDS011;6486;51.034;5.262;2023-04-19T05:43:51;2.80;;;1.97;;
12838;SDS011;6486;51.034;5.262;2023-04-19T05:46:17;4.03;;;3.27;;
12838;SDS011;6486;51.034;5.262;2023-04-19T05:48:42;5.10;;;2.53;;
12838;SDS011;6486;51.034;5.262;2023-04-19T05:51:08;2.27;;;2.07;;
12838;SDS011;6486;51.034;5.262;2023-04-19T05:53:34;4.33;;;2.07;;
12838;SDS011;6486;51.034;5.262;2023-04-19T05:55:59;2.67;;;1.70;;
12838;SDS011;6486;51.034;5.262;2023-04-19T05:58:25;2.23;;;1.70;;
12838;SDS011;6486;51.034;5.262;2023-04-19T06:00:51;6.43;;;2.87;;
12838;SDS011;6486;51.034;5.262;2023-04-19T06:03:16;3.03;;;1.90;;
12838;SDS011;6486;51.034;5.262;2023-04-19T06:05:42;3.57;;;2.13;;
12838;SDS011;6486;51.034;5.262;2023-04-19T06:08:07;3.90;;;3.33;;
12838;SDS011;6486;51.034;5.262;2023-04-19T06:10:33;43.57;;;3.90;;
12838;SDS011;6486;51.034;5.262;2023-04-19T06:13:00;4.17;;;1.90;;
12838;SDS011;6486;51.034;5.262;2023-04-19T06:15:26;3.83;;;2.47;;
12838;SDS011;6486;51.034;5.262;2023-04-19T06:17:51;2.63;;;2.00;;
12838;SDS011;6486;51.034;5.262;2023-04-19T06:20:17;4.63;;;2.17;;
12838;SDS011;6486;51.034;5.262;2023-04-19T06:22:45;4.13;;;2.60;;
12838;SDS011;6486;51.034;5.262;2023-04-19T06:25:13;5.87;;;2.23;;
12838;SDS011;6486;51.034;5.262;2023-04-19T06:27:39;5.00;;;2.00;;
12838;SDS011;6486;51.034;5.262;2023-04-19T06:30:04;5.37;;;2.43;;
12838;SDS011;6486;51.034;5.262;2023-04-19T06:32:31;2.63;;;1.77;;
12838;SDS011;6486;51.034;5.262;2023-04-19T06:34:56;2.53;;;2.33;;
12838;SDS011;6486;51.034;5.262;2023-04-19T06:37:22;2.50;;;1.73;;
12838;SDS011;6486;51.034;5.262;2023-04-19T06:39:48;4.63;;;2.67;;
12838;SDS011;6486;51.034;5.262;2023-04-19T06:42:13;2.00;;;1.77;;
12838;SDS011;6486;51.034;5.262;2023-04-19T06:44:39;3.00;;;2.60;;
12838;SDS011;6486;51.034;5.262;2023-04-19T06:47:05;3.73;;;2.40;;
12838;SDS011;6486;51.034;5.262;2023-04-19T06:49:30;4.17;;;1.93;;
12838;SDS011;6486;51.034;5.262;2023-04-19T06:51:57;3.87;;;2.37;;
12838;SDS011;6486;51.034;5.262;2023-04-19T06:54:23;2.17;;;1.63;;
12838;SDS011;6486;51.034;5.262;2023-04-19T06:56:49;2.93;;;1.93;;
12838;SDS011;6486;51.034;5.262;2023-04-19T06:59:16;4.87;;;2.73;;
12838;SDS011;6486;51.034;5.262;2023-04-19T07:01:43;3.47;;;2.27;;
12838;SDS011;6486;51.034;5.262;2023-04-19T07:04:09;3.00;;;1.40;;
12838;SDS011;6486;51.034;5.262;2023-04-19T07:06:36;2.10;;;1.73;;
12838;SDS011;6486;51.034;5.262;2023-04-19T07:09:02;3.57;;;2.23;;
12838;SDS011;6486;51.034;5.262;2023-04-19T07:11:29;2.73;;;1.80;;
12838;SDS011;6486;51.034;5.262;2023-04-19T07:13:55;3.10;;;2.67;;
12838;SDS011;6486;51.034;5.262;2023-04-19T07:16:21;2.50;;;2.00;;
12838;SDS011;6486;51.034;5.262;2023-04-19T07:18:46;4.07;;;2.17;;
12838;SDS011;6486;51.034;5.262;2023-04-19T07:21:12;3.00;;;2.07;;
12838;SDS011;6486;51.034;5.262;2023-04-19T07:23:38;2.43;;;1.83;;
12838;SDS011;6486;51.034;5.262;2023-04-19T07:26:03;5.53;;;2.03;;
12838;SDS011;6486;51.034;5.262;2023-04-19T07:28:29;3.37;;;1.90;;
12838;SDS011;6486;51.034;5.262;2023-04-19T07:30:55;1.57;;;1.30;;
12838;SDS011;6486;51.034;5.262;2023-04-19T07:33:21;2.40;;;2.03;;
12838;SDS011;6486;51.034;5.262;2023-04-19T07:35:48;1.47;;;1.17;;
12838;SDS011;6486;51.034;5.262;2023-04-19T07:38:14;1.83;;;1.43;;
12838;SDS011;6486;51.034;5.262;2023-04-19T07:40:40;0.77;;;0.70;;
12838;SDS011;6486;51.034;5.262;2023-04-19T07:43:05;4.07;;;2.67;;
12838;SDS011;6486;51.034;5.262;2023-04-19T07:45:31;10.07;;;1.87;;
12838;SDS011;6486;51.034;5.262;2023-04-19T07:47:57;1.33;;;1.20;;
12838;SDS011;6486;51.034;5.262;2023-04-19T07:50:23;2.50;;;1.60;;
12838;SDS011;6486;51.034;5.262;2023-04-19T07:52:50;4.00;;;1.57;;
12838;SDS011;6486;51.034;5.262;2023-04-19T07:55:16;3.00;;;1.20;;
12838;SDS011;6486;51.034;5.262;2023-04-19T07:57:42;2.63;;;1.90;;
12838;SDS011;6486;51.034;5.262;2023-04-19T08:00:16;1.23;;;1.17;;
12838;SDS011;6486;51.034;5.262;2023-04-19T08:02:46;1.93;;;0.80;;
12838;SDS011;6486;51.034;5.262;2023-04-19T08:05:13;2.43;;;0.90;;
12838;SDS011;6486;51.034;5.262;2023-04-19T08:07:43;1.77;;;1.37;;
12838;SDS011;6486;51.034;5.262;2023-04-19T08:10:09;2.33;;;1.00;;
12838;SDS011;6486;51.034;5.262;2023-04-19T08:12:35;3.00;;;1.77;;
12838;SDS011;6486;51.034;5.262;2023-04-19T08:15:05;3.30;;;2.40;;
12838;SDS011;6486;51.034;5.262;2023-04-19T08:17:32;2.50;;;1.00;;
12838;SDS011;6486;51.034;5.262;2023-04-19T08:19:58;0.93;;;0.80;;
12838;SDS011;6486;51.034;5.262;2023-04-19T08:22:24;2.73;;;0.97;;
12838;SDS011;6486;51.034;5.262;2023-04-19T08:24:49;2.70;;;0.93;;
12838;SDS011;6486;51.034;5.262;2023-04-19T08:27:18;1.23;;;1.13;;
12838;SDS011;6486;51.034;5.262;2023-04-19T08:29:44;2.20;;;0.80;;
12838;SDS011;6486;51.034;5.262;2023-04-19T08:32:11;3.37;;;0.93;;
12838;SDS011;6486;51.034;5.262;2023-04-19T08:34:37;2.93;;;1.53;;
12838;SDS011;6486;51.034;5.262;2023-04-19T08:37:04;2.17;;;1.40;;
12838;SDS011;6486;51.034;5.262;2023-04-19T08:39:31;1.77;;;0.93;;
12838;SDS011;6486;51.034;5.262;2023-04-19T08:42:00;1.20;;;1.00;;
12838;SDS011;6486;51.034;5.262;2023-04-19T08:44:32;1.20;;;1.03;;
12838;SDS011;6486;51.034;5.262;2023-04-19T08:46:58;2.27;;;1.50;;
12838;SDS011;6486;51.034;5.262;2023-04-19T08:49:25;1.20;;;0.70;;
12838;SDS011;6486;51.034;5.262;2023-04-19T08:51:52;2.27;;;0.87;;
12838;SDS011;6486;51.034;5.262;2023-04-19T08:54:21;1.80;;;1.30;;
12838;SDS011;6486;51.034;5.262;2023-04-19T08:56:48;2.77;;;2.07;;
12838;SDS011;6486;51.034;5.262;2023-04-19T08:59:14;3.90;;;1.37;;
12838;SDS011;6486;51.034;5.262;2023-04-19T09:01:39;1.73;;;1.37;;
12838;SDS011;6486;51.034;5.262;2023-04-19T09:04:05;3.30;;;1.70;;
12838;SDS011;6486;51.034;5.262;2023-04-19T09:06:37;2.77;;;1.30;;
12838;SDS011;6486;51.034;5.262;2023-04-19T09:11:59;9.87;;;2.40;;
12838;SDS011;6486;51.034;5.262;2023-04-19T09:14:26;2.40;;;1.33;;
12838;SDS011;6486;51.034;5.262;2023-04-19T09:16:52;1.17;;;1.07;;
12838;SDS011;6486;51.034;5.262;2023-04-19T09:19:18;0.90;;;0.80;;
12838;SDS011;6486;51.034;5.262;2023-04-19T09:21:44;2.13;;;1.43;;
12838;SDS011;6486;51.034;5.262;2023-04-19T09:24:10;3.13;;;1.37;;
12838;SDS011;6486;51.034;5.262;2023-04-19T09:26:36;1.33;;;1.23;;
12838;SDS011;6486;51.034;5.262;2023-04-19T09:29:03;1.23;;;1.13;;
12838;SDS011;6486;51.034;5.262;2023-04-19T09:31:33;2.53;;;1.73;;
12838;SDS011;6486;51.034;5.262;2023-04-19T09:34:16;1.67;;;1.07;;
12838;SDS011;6486;51.034;5.262;2023-04-19T09:36:43;1.70;;;1.10;;
12838;SDS011;6486;51.034;5.262;2023-04-19T09:39:10;2.03;;;1.43;;
12838;SDS011;6486;51.034;5.262;2023-04-19T09:41:51;2.47;;;1.40;;
12838;SDS011;6486;51.034;5.262;2023-04-19T09:44:17;0.80;;;0.80;;
12838;SDS011;6486;51.034;5.262;2023-04-19T09:46:44;3.93;;;1.77;;
12838;SDS011;6486;51.034;5.262;2023-04-19T09:51:45;2.03;;;0.90;;
12838;SDS011;6486;51.034;5.262;2023-04-19T09:54:12;7.43;;;2.13;;
12838;SDS011;6486;51.034;5.262;2023-04-19T09:56:39;4.43;;;1.43;;
12838;SDS011;6486;51.034;5.262;2023-04-19T09:59:05;2.90;;;1.40;;
12838;SDS011;6486;51.034;5.262;2023-04-19T10:01:34;2.43;;;1.37;;
12838;SDS011;6486;51.034;5.262;2023-04-19T10:04:04;1.70;;;1.60;;
12838;SDS011;6486;51.034;5.262;2023-04-19T10:06:31;1.97;;;1.40;;
12838;SDS011;6486;51.034;5.262;2023-04-19T10:08:59;1.27;;;1.27;;
12838;SDS011;6486;51.034;5.262;2023-04-19T10:11:30;4.43;;;1.67;;
12838;SDS011;6486;51.034;5.262;2023-04-19T10:14:03;1.30;;;1.17;;
12838;SDS011;6486;51.034;5.262;2023-04-19T10:16:31;1.60;;;1.17;;
12838;SDS011;6486;51.034;5.262;2023-04-19T10:18:57;2.30;;;1.67;;
12838;SDS011;6486;51.034;5.262;2023-04-19T10:21:24;1.37;;;1.27;;
12838;SDS011;6486;51.034;5.262;2023-04-19T10:23:52;1.53;;;1.40;;
12838;SDS011;6486;51.034;5.262;2023-04-19T10:26:18;2.93;;;1.10;;
12838;SDS011;6486;51.034;5.262;2023-04-19T10:28:44;1.63;;;1.00;;
12838;SDS011;6486;51.034;5.262;2023-04-19T10:31:12;0.73;;;0.73;;
12838;SDS011;6486;51.034;5.262;2023-04-19T10:33:38;2.20;;;1.00;;
12838;SDS011;6486;51.034;5.262;2023-04-19T10:36:07;1.10;;;1.00;;
12838;SDS011;6486;51.034;5.262;2023-04-19T10:38:46;1.67;;;1.47;;
12838;SDS011;6486;51.034;5.262;2023-04-19T10:41:22;1.60;;;0.97;;
12838;SDS011;6486;51.034;5.262;2023-04-19T10:49:06;1.27;;;0.57;;
12838;SDS011;6486;51.034;5.262;2023-04-19T10:54:03;2.20;;;1.10;;
12838;SDS011;6486;51.034;5.262;2023-04-19T11:01:32;1.80;;;1.03;;
12838;SDS011;6486;51.034;5.262;2023-04-19T11:09:31;1.23;;;1.07;;
12838;SDS011;6486;51.034;5.262;2023-04-19T11:14:30;4.83;;;1.33;;
12838;SDS011;6486;51.034;5.262;2023-04-19T11:16:58;2.77;;;1.43;;
12838;SDS011;6486;51.034;5.262;2023-04-19T11:19:25;1.20;;;1.10;;
12838;SDS011;6486;51.034;5.262;2023-04-19T11:21:50;1.90;;;1.30;;
12838;SDS011;6486;51.034;5.262;2023-04-19T11:24:16;1.03;;;1.00;;
12838;SDS011;6486;51.034;5.262;2023-04-19T11:26:45;0.97;;;0.70;;
12838;SDS011;6486;51.034;5.262;2023-04-19T11:29:12;3.40;;;1.10;;
12838;SDS011;6486;51.034;5.262;2023-04-19T11:31:38;2.40;;;1.30;;
12838;SDS011;6486;51.034;5.262;2023-04-19T11:34:04;1.93;;;1.13;;
12838;SDS011;6486;51.034;5.262;2023-04-19T11:36:30;1.00;;;0.90;;
12838;SDS011;6486;51.034;5.262;2023-04-19T11:39:01;1.20;;;1.10;;
12838;SDS011;6486;51.034;5.262;2023-04-19T11:41:35;1.13;;;0.70;;
12838;SDS011;6486;51.034;5.262;2023-04-19T11:44:02;3.20;;;1.80;;
12838;SDS011;6486;51.034;5.262;2023-04-19T11:46:27;2.87;;;2.07;;
12838;SDS011;6486;51.034;5.262;2023-04-19T11:48:53;0.77;;;0.70;;
12838;SDS011;6486;51.034;5.262;2023-04-19T11:51:19;1.83;;;0.63;;
12838;SDS011;6486;51.034;5.262;2023-04-19T11:53:45;0.83;;;0.83;;
12838;SDS011;6486;51.034;5.262;2023-04-19T11:56:11;0.73;;;0.73;;
12838;SDS011;6486;51.034;5.262;2023-04-19T11:58:42;0.83;;;0.77;;
12838;SDS011;6486;51.034;5.262;2023-04-19T12:01:18;1.70;;;0.93;;
12838;SDS011;6486;51.034;5.262;2023-04-19T12:06:13;1.00;;;0.90;;
12838;SDS011;6486;51.034;5.262;2023-04-19T12:08:47;0.87;;;0.87;;
12838;SDS011;6486;51.034;5.262;2023-04-19T12:11:14;3.03;;;1.33;;
12838;SDS011;6486;51.034;5.262;2023-04-19T12:13:40;1.83;;;0.57;;
12838;SDS011;6486;51.034;5.262;2023-04-19T12:16:08;1.27;;;1.07;;
12838;SDS011;6486;51.034;5.262;2023-04-19T12:18:50;1.47;;;0.80;;
12838;SDS011;6486;51.034;5.262;2023-04-19T12:21:23;0.37;;;0.37;;
12838;SDS011;6486;51.034;5.262;2023-04-19T12:23:53;2.30;;;0.70;;
12838;SDS011;6486;51.034;5.262;2023-04-19T12:26:23;0.93;;;0.60;;
12838;SDS011;6486;51.034;5.262;2023-04-19T12:28:50;0.97;;;0.60;;
12838;SDS011;6486;51.034;5.262;2023-04-19T12:31:16;2.40;;;0.80;;
12838;SDS011;6486;51.034;5.262;2023-04-19T12:33:42;1.07;;;0.60;;
12838;SDS011;6486;51.034;5.262;2023-04-19T12:36:07;2.00;;;1.20;;
12838;SDS011;6486;51.034;5.262;2023-04-19T12:38:33;3.50;;;0.63;;
12838;SDS011;6486;51.034;5.262;2023-04-19T12:40:58;1.43;;;0.77;;
12838;SDS011;6486;51.034;5.262;2023-04-19T12:43:25;0.40;;;0.40;;
12838;SDS011;6486;51.034;5.262;2023-04-19T12:45:50;0.40;;;0.40;;
12838;SDS011;6486;51.034;5.262;2023-04-19T12:48:16;0.97;;;0.70;;
12838;SDS011;6486;51.034;5.262;2023-04-19T12:50:41;1.10;;;1.00;;
12838;SDS011;6486;51.034;5.262;2023-04-19T12:53:07;0.30;;;0.30;;
12838;SDS011;6486;51.034;5.262;2023-04-19T12:55:33;0.97;;;0.87;;
12838;SDS011;6486;51.034;5.262;2023-04-19T12:57:59;10.13;;;1.10;;
12838;SDS011;6486;51.034;5.262;2023-04-19T13:00:24;1.77;;;0.50;;
12838;SDS011;6486;51.034;5.262;2023-04-19T13:02:50;1.83;;;0.73;;
12838;SDS011;6486;51.034;5.262;2023-04-19T13:05:16;0.30;;;0.30;;
12838;SDS011;6486;51.034;5.262;2023-04-19T13:07:41;1.50;;;0.60;;
12838;SDS011;6486;51.034;5.262;2023-04-19T13:10:07;0.50;;;0.50;;
12838;SDS011;6486;51.034;5.262;2023-04-19T13:12:33;0.37;;;0.37;;
12838;SDS011;6486;51.034;5.262;2023-04-19T13:15:00;1.80;;;0.40;;
12838;SDS011;6486;51.034;5.262;2023-04-19T13:17:25;1.17;;;0.63;;
12838;SDS011;6486;51.034;5.262;2023-04-19T13:19:51;1.70;;;0.40;;
12838;SDS011;6486;51.034;5.262;2023-04-19T13:22:16;4.40;;;1.33;;
12838;SDS011;6486;51.034;5.262;2023-04-19T13:24:42;1.23;;;0.57;;
12838;SDS011;6486;51.034;5.262;2023-04-19T13:27:08;2.50;;;0.47;;
12838;SDS011;6486;51.034;5.262;2023-04-19T13:29:33;1.53;;;0.80;;
12838;SDS011;6486;51.034;5.262;2023-04-19T13:31:59;0.33;;;0.33;;
12838;SDS011;6486;51.034;5.262;2023-04-19T13:34:24;1.30;;;0.50;;
12838;SDS011;6486;51.034;5.262;2023-04-19T13:36:50;1.10;;;0.37;;
12838;SDS011;6486;51.034;5.262;2023-04-19T13:39:16;0.67;;;0.40;;
12838;SDS011;6486;51.034;5.262;2023-04-19T13:41:41;0.30;;;0.30;;
12838;SDS011;6486;51.034;5.262;2023-04-19T13:44:07;0.73;;;0.50;;
12838;SDS011;6486;51.034;5.262;2023-04-19T13:46:32;0.57;;;0.57;;
12838;SDS011;6486;51.034;5.262;2023-04-19T13:48:58;0.67;;;0.67;;
12838;SDS011;6486;51.034;5.262;2023-04-19T13:51:24;1.33;;;1.23;;
12838;SDS011;6486;51.034;5.262;2023-04-19T13:53:50;0.50;;;0.50;;
12838;SDS011;6486;51.034;5.262;2023-04-19T13:56:17;0.83;;;0.83;;
12838;SDS011;6486;51.034;5.262;2023-04-19T13:58:42;0.40;;;0.40;;
12838;SDS011;6486;51.034;5.262;2023-04-19T14:01:08;0.97;;;0.67;;
12838;SDS011;6486;51.034;5.262;2023-04-19T14:03:34;0.50;;;0.50;;
12838;SDS011;6486;51.034;5.262;2023-04-19T14:06:00;1.93;;;0.90;;
12838;SDS011;6486;51.034;5.262;2023-04-19T14:08:25;0.60;;;0.60;;
12838;SDS011;6486;51.034;5.262;2023-04-19T14:10:51;1.40;;;0.60;;
12838;SDS011;6486;51.034;5.262;2023-04-19T14:13:17;0.50;;;0.50;;
12838;SDS011;6486;51.034;5.262;2023-04-19T14:15:42;2.10;;;1.03;;
12838;SDS011;6486;51.034;5.262;2023-04-19T14:18:08;1.13;;;0.50;;
12838;SDS011;6486;51.034;5.262;2023-04-19T14:20:33;1.63;;;0.73;;
12838;SDS011;6486;51.034;5.262;2023-04-19T14:23:00;0.30;;;0.30;;
12838;SDS011;6486;51.034;5.262;2023-04-19T14:25:25;1.00;;;0.70;;
12838;SDS011;6486;51.034;5.262;2023-04-19T14:27:51;0.50;;;0.50;;
12838;SDS011;6486;51.034;5.262;2023-04-19T14:30:17;1.43;;;0.80;;
12838;SDS011;6486;51.034;5.262;2023-04-19T14:32:43;1.33;;;0.83;;
12838;SDS011;6486;51.034;5.262;2023-04-19T14:35:09;0.83;;;0.50;;
12838;SDS011;6486;51.034;5.262;2023-04-19T14:37:36;1.23;;;0.83;;
12838;SDS011;6486;51.034;5.262;2023-04-19T14:40:02;0.77;;;0.67;;
12838;SDS011;6486;51.034;5.262;2023-04-19T14:42:28;0.37;;;0.23;;
12838;SDS011;6486;51.034;5.262;2023-04-19T14:44:53;1.00;;;0.50;;
12838;SDS011;6486;51.034;5.262;2023-04-19T14:47:19;0.60;;;0.60;;
12838;SDS011;6486;51.034;5.262;2023-04-19T14:49:45;0.53;;;0.53;;
12838;SDS011;6486;51.034;5.262;2023-04-19T14:52:10;2.30;;;1.03;;
12838;SDS011;6486;51.034;5.262;2023-04-19T14:54:36;0.30;;;0.30;;
12838;SDS011;6486;51.034;5.262;2023-04-19T14:57:02;0.77;;;0.67;;
12838;SDS011;6486;51.034;5.262;2023-04-19T14:59:27;0.90;;;0.83;;
12838;SDS011;6486;51.034;5.262;2023-04-19T15:01:53;0.43;;;0.33;;
12838;SDS011;6486;51.034;5.262;2023-04-19T15:04:19;0.73;;;0.70;;
12838;SDS011;6486;51.034;5.262;2023-04-19T15:06:45;1.53;;;0.60;;
12838;SDS011;6486;51.034;5.262;2023-04-19T15:09:10;0.63;;;0.63;;
12838;SDS011;6486;51.034;5.262;2023-04-19T15:11:37;0.90;;;0.70;;
12838;SDS011;6486;51.034;5.262;2023-04-19T15:14:02;0.37;;;0.37;;
12838;SDS011;6486;51.034;5.262;2023-04-19T15:16:28;0.47;;;0.40;;
12838;SDS011;6486;51.034;5.262;2023-04-19T15:18:53;1.00;;;0.57;;
12838;SDS011;6486;51.034;5.262;2023-04-19T15:21:19;6.07;;;0.77;;
12838;SDS011;6486;51.034;5.262;2023-04-19T15:23:46;0.73;;;0.53;;